Time;durP1;ratioP1;P1;durP2;ratioP2;P2;SDS_P1;SDS_P2;PMS_P1;PMS_P2;Temp;Humidity;BMP_temperature;BMP_pressure;BME280_temperature;BME280_humidity;BME280_pressure;Samples;Min_cycle;Max_cycle;Signal;HPM_P1;HPM_P2
2024/01/12 00:01:35;;;;;;;53.50;15.57;;;;;;;0.69;100.00;102981.38;6246757;28;20049;-71
2024/01/12 00:04:37;;;;;;;43.72;13.27;;;;;;;0.72;100.00;102986.59;6239010;28;20038;-70
2024/01/12 00:07:38;;;;;;;63.60;16.55;;;;;;;0.74;100.00;102982.34;6241840;28;20053;-70
2024/01/12 00:10:41;;;;;;;47.70;14.52;;;;;;;0.75;100.00;102970.28;6251407;28;20060;-70
2024/01/12 00:13:42;;;;;;;51.10;16.88;;;;;;;0.75;100.00;102972.88;6250727;28;20041;-70
2024/01/12 00:16:47;;;;;;;57.55;14.93;;;;;;;0.74;100.00;102965.94;6245193;28;20053;-70
2024/01/12 00:19:49;;;;;;;53.58;13.48;;;;;;;0.71;100.00;102960.69;6254193;28;20141;-70
2024/01/12 00:22:50;;;;;;;45.83;12.73;;;;;;;0.74;100.00;102959.06;6253382;28;20057;-71
2024/01/12 00:25:58;;;;;;;58.63;14.02;;;;;;;0.77;100.00;102973.75;6253347;28;20351;-70
2024/01/12 00:28:59;;;;;;;51.05;12.90;;;;;;;0.81;100.00;102973.00;6243017;28;20426;-71
2024/01/12 00:32:01;;;;;;;48.00;12.70;;;;;;;0.80;100.00;102972.97;6227313;28;20049;-70
2024/01/12 00:35:02;;;;;;;41.38;13.48;;;;;;;0.78;100.00;102974.66;6242680;28;20042;-71
2024/01/12 00:38:04;;;;;;;52.15;15.60;;;;;;;0.73;100.00;102974.56;6245343;28;20049;-71
2024/01/12 00:41:07;;;;;;;41.92;12.27;;;;;;;0.75;100.00;102978.03;6253431;28;20386;-71
2024/01/12 00:44:08;;;;;;;55.60;16.40;;;;;;;0.68;100.00;102977.03;6252984;28;20740;-71
2024/01/12 00:47:09;;;;;;;61.92;16.02;;;;;;;0.69;100.00;102981.38;6253107;28;20061;-71
2024/01/12 00:50:11;;;;;;;55.22;15.98;;;;;;;0.69;100.00;102976.19;6253232;28;20049;-70
2024/01/12 00:53:12;;;;;;;53.90;15.38;;;;;;;0.64;100.00;102979.53;6253000;28;20060;-69
2024/01/12 00:56:15;;;;;;;50.55;14.35;;;;;;;0.61;100.00;102971.69;6252792;28;20049;-71
2024/01/12 00:59:16;;;;;;;44.88;13.55;;;;;;;0.61;100.00;102980.31;6252982;28;20060;-69
2024/01/12 01:02:18;;;;;;;59.08;15.38;;;;;;;0.58;100.00;102987.09;6253026;28;20070;-70
2024/01/12 01:05:19;;;;;;;49.75;13.35;;;;;;;0.56;100.00;102983.63;6252314;28;20045;-71
2024/01/12 01:08:21;;;;;;;51.75;14.65;;;;;;;0.59;100.00;102982.00;6252686;28;20051;-70
2024/01/12 01:11:24;;;;;;;51.72;13.90;;;;;;;0.48;100.00;102986.03;6252770;28;20052;-70
2024/01/12 01:14:26;;;;;;;42.85;12.80;;;;;;;0.49;100.00;102990.34;6252469;28;20045;-70
2024/01/12 01:17:27;;;;;;;40.17;12.57;;;;;;;0.52;100.00;102990.44;6252011;28;20056;-70
2024/01/12 01:20:29;;;;;;;50.75;12.80;;;;;;;0.47;100.00;102995.50;6252752;28;20057;-70
2024/01/12 01:23:30;;;;;;;38.83;11.35;;;;;;;0.47;100.00;102992.03;6252069;28;20358;-70
2024/01/12 01:26:33;;;;;;;54.42;14.05;;;;;;;0.44;100.00;103000.59;6252225;28;20049;-70
2024/01/12 01:29:34;;;;;;;33.25;10.65;;;;;;;0.49;100.00;102998.97;6252494;28;20050;-70
2024/01/12 01:32:35;;;;;;;35.33;10.82;;;;;;;0.50;100.00;103002.47;6251879;28;20054;-70
2024/01/12 01:35:37;;;;;;;33.03;9.77;;;;;;;0.41;100.00;102997.94;6251881;28;20042;-71
2024/01/12 01:38:38;;;;;;;31.95;9.85;;;;;;;0.41;100.00;102997.94;6251817;28;20053;-70
2024/01/12 01:41:41;;;;;;;39.17;10.25;;;;;;;0.44;100.00;103000.59;6252231;28;20053;-70
2024/01/12 01:44:42;;;;;;;32.45;9.10;;;;;;;0.45;100.00;103004.91;6250638;28;20056;-71
2024/01/12 01:47:45;;;;;;;26.83;7.78;;;;;;;0.43;100.00;102993.66;6247939;28;20053;-70
2024/01/12 01:50:47;;;;;;;31.33;8.52;;;;;;;0.43;100.00;102995.38;6234897;28;20045;-71
2024/01/12 01:53:48;;;;;;;24.35;6.88;;;;;;;0.37;100.00;102998.69;6249501;28;20049;-71
2024/01/12 01:56:51;;;;;;;25.23;7.40;;;;;;;0.33;100.00;103004.63;6251045;28;20054;-70
2024/01/12 01:59:53;;;;;;;19.55;6.47;;;;;;;0.36;100.00;102993.47;6240514;28;20052;-70
2024/01/12 02:02:54;;;;;;;26.48;7.90;;;;;;;0.30;100.00;102983.84;6250238;28;20062;-70
2024/01/12 02:05:58;;;;;;;30.08;6.55;;;;;;;0.24;100.00;102991.47;6250769;28;20466;-70
2024/01/12 02:09:00;;;;;;;19.35;5.20;;;;;;;0.20;100.00;102992.22;6251461;28;20060;-69
2024/01/12 02:12:04;;;;;;;18.63;5.25;;;;;;;0.18;100.00;102991.28;6251551;28;20045;-71
2024/01/12 02:15:07;;;;;;;15.40;5.05;;;;;;;0.07;100.00;102997.91;6250558;28;20136;-71
2024/01/12 02:18:08;;;;;;;15.10;5.78;;;;;;;-0.02;100.00;102986.47;6251412;28;20057;-70
2024/01/12 02:21:11;;;;;;;20.30;5.40;;;;;;;0.02;100.00;102984.88;6251379;28;20120;-71
2024/01/12 02:24:12;;;;;;;18.08;4.28;;;;;;;0.06;100.00;102991.88;6246126;28;20470;-71
2024/01/12 02:27:14;;;;;;;16.45;5.88;;;;;;;0.05;100.00;102990.13;6242250;28;20046;-70
2024/01/12 02:30:15;;;;;;;22.88;5.05;;;;;;;0.06;100.00;102999.63;6251118;28;20362;-71
2024/01/12 02:33:17;;;;;;;20.30;7.18;;;;;;;0.10;100.00;102991.13;6250581;28;20361;-71
2024/01/12 02:36:19;;;;;;;19.02;5.80;;;;;;;0.12;100.00;102986.84;6244669;28;20046;-69
2024/01/12 02:39:21;;;;;;;26.02;6.03;;;;;;;0.05;100.00;102978.91;6242632;28;20050;-70
2024/01/12 02:42:22;;;;;;;17.83;6.35;;;;;;;-0.04;100.00;102979.53;6250502;28;20053;-71
2024/01/12 02:45:23;;;;;;;21.90;5.93;;;;;;;-0.07;100.00;102966.53;6250341;28;20052;-71
2024/01/12 02:48:25;;;;;;;26.67;6.43;;;;;;;-0.02;100.00;102967.53;6246396;28;20041;-71
2024/01/12 02:51:27;;;;;;;15.35;6.20;;;;;;;-0.09;100.00;102969.09;6242597;28;20050;-71
2024/01/12 02:54:29;;;;;;;24.67;6.68;;;;;;;-0.09;100.00;102963.00;6273763;22;20045;-77
2024/01/12 02:57:31;;;;;;;21.38;6.93;;;;;;;-0.07;100.00;102954.47;6273167;28;20344;-76
2024/01/12 03:00:32;;;;;;;22.40;5.82;;;;;;;0.02;100.00;102952.97;6250716;28;20453;-76
2024/01/12 03:03:33;;;;;;;20.73;5.85;;;;;;;0.08;100.00;102960.88;6266245;28;20053;-76
2024/01/12 03:06:36;;;;;;;17.42;6.57;;;;;;;0.06;100.00;102950.50;6274408;28;20075;-77
2024/01/12 03:09:37;;;;;;;16.75;6.28;;;;;;;0.09;100.00;102949.69;6275141;28;20057;-76
2024/01/12 03:12:39;;;;;;;25.25;7.55;;;;;;;0.04;100.00;102947.00;6275033;28;20060;-76
2024/01/12 03:15:40;;;;;;;16.42;5.60;;;;;;;0.08;100.00;102945.38;6274469;28;20045;-76
2024/01/12 03:18:41;;;;;;;14.50;5.90;;;;;;;0.14;100.00;102941.25;6283198;28;20048;-77
2024/01/12 03:21:44;;;;;;;21.90;6.50;;;;;;;0.23;100.00;102943.19;6296935;28;20052;-77
2024/01/12 03:24:45;;;;;;;22.50;6.55;;;;;;;0.27;100.00;102944.97;6299503;28;20055;-77
2024/01/12 03:27:46;;;;;;;21.58;5.60;;;;;;;0.36;100.00;102936.56;6278869;28;20367;-76
2024/01/12 03:30:48;;;;;;;24.35;7.18;;;;;;;0.44;100.00;102929.88;6274897;28;20053;-76
2024/01/12 03:33:49;;;;;;;20.10;5.95;;;;;;;0.50;100.00;102927.47;6274224;28;20388;-76
2024/01/12 03:36:52;;;;;;;20.38;5.85;;;;;;;0.45;100.00;102937.66;6273722;28;20044;-75
2024/01/12 03:39:53;;;;;;;19.83;6.13;;;;;;;0.37;100.00;102946.09;6274982;28;20358;-77
2024/01/12 03:42:54;;;;;;;14.38;5.90;;;;;;;0.44;100.00;102937.63;6274050;28;20045;-76
2024/01/12 03:45:56;;;;;;;20.30;6.65;;;;;;;0.46;100.00;102944.59;6274266;28;20064;-76
2024/01/12 03:48:57;;;;;;;16.40;6.00;;;;;;;0.43;100.00;102952.28;6274687;28;20081;-76
2024/01/12 03:52:00;;;;;;;14.88;5.45;;;;;;;0.46;100.00;102951.50;6274890;28;20060;-76
2024/01/12 03:55:01;;;;;;;21.88;6.60;;;;;;;0.40;100.00;102956.50;6274162;28;20457;-76
2024/01/12 03:58:02;;;;;;;24.83;6.07;;;;;;;0.39;100.00;102955.63;6274437;28;20080;-76
2024/01/12 04:01:06;;;;;;;19.42;6.35;;;;;;;0.49;100.00;102942.06;6273805;28;20187;-76
2024/01/12 04:04:07;;;;;;;17.88;5.78;;;;;;;0.56;100.00;102930.19;6285612;28;20053;-76
2024/01/12 04:07:10;;;;;;;25.30;7.55;;;;;;;0.63;100.00;102934.63;6274979;28;20049;-76
2024/01/12 04:10:11;;;;;;;22.73;6.57;;;;;;;0.72;100.00;102933.97;6278385;28;20045;-76
2024/01/12 04:13:12;;;;;;;18.20;6.80;;;;;;;0.71;100.00;102938.28;6277631;28;20052;-76
2024/01/12 04:16:13;;;;;;;21.00;6.20;;;;;;;0.76;100.00;102930.63;6277823;28;20041;-76
2024/01/12 04:19:15;;;;;;;21.83;6.55;;;;;;;0.74;100.00;102922.81;6277898;28;20045;-76
2024/01/12 04:22:17;;;;;;;25.80;6.65;;;;;;;0.76;100.00;102921.13;6277933;28;20049;-76
2024/01/12 04:25:19;;;;;;;14.13;5.30;;;;;;;0.72;100.00;102916.72;6279425;28;20373;-76
2024/01/12 04:28:20;;;;;;;17.75;6.65;;;;;;;0.73;100.00;102909.88;6277794;28;20049;-76
2024/01/12 04:31:21;;;;;;;20.92;6.85;;;;;;;0.69;100.00;102906.31;6283486;28;20049;-76
2024/01/12 04:34:23;;;;;;;22.50;7.03;;;;;;;0.66;100.00;102895.91;6277897;28;20049;-76
2024/01/12 04:37:25;;;;;;;18.27;5.72;;;;;;;0.56;100.00;102887.91;6279649;28;20049;-77
2024/01/12 04:40:27;;;;;;;16.95;6.05;;;;;;;0.68;100.00;102899.41;6283330;28;20441;-76
2024/01/12 04:43:28;;;;;;;20.25;6.90;;;;;;;0.76;100.00;102894.38;6277798;28;20056;-76
2024/01/12 04:46:29;;;;;;;23.85;6.75;;;;;;;0.74;100.00;102888.31;6277863;28;20052;-76
2024/01/12 04:49:31;;;;;;;14.02;5.03;;;;;;;0.82;100.00;102899.72;6278085;28;20048;-76
2024/01/12 04:52:33;;;;;;;17.70;5.88;;;;;;;0.82;100.00;102906.56;6277991;28;20056;-77
2024/01/12 04:55:34;;;;;;;21.10;5.85;;;;;;;0.76;100.00;102900.44;6277202;28;20049;-76
2024/01/12 04:58:36;;;;;;;22.90;7.18;;;;;;;0.64;100.00;102884.66;6278014;28;20056;-76
2024/01/12 05:01:37;;;;;;;26.88;7.38;;;;;;;0.65;100.00;102881.22;6277882;28;20049;-77
2024/01/12 05:04:38;;;;;;;23.88;6.78;;;;;;;0.56;100.00;102893.09;6277357;28;20354;-76
2024/01/12 05:07:41;;;;;;;17.27;6.53;;;;;;;0.48;100.00;102879.97;6285012;28;20052;-76
2024/01/12 05:10:42;;;;;;;26.63;7.25;;;;;;;0.60;100.00;102872.50;6299208;28;20044;-76
2024/01/12 05:13:44;;;;;;;25.38;5.78;;;;;;;0.64;100.00;102882.06;6302218;28;20055;-77
2024/01/12 05:16:45;;;;;;;24.77;6.60;;;;;;;0.62;100.00;102886.31;6301429;28;20056;-76
2024/01/12 05:19:46;;;;;;;23.23;7.15;;;;;;;0.60;100.00;102895.78;6301152;28;20357;-77
2024/01/12 05:22:49;;;;;;;21.52;7.18;;;;;;;0.69;100.00;102892.53;6301942;28;20056;-76
2024/01/12 05:25:50;;;;;;;19.17;6.63;;;;;;;0.63;100.00;102885.47;6301422;28;20341;-77
2024/01/12 05:28:52;;;;;;;26.08;6.85;;;;;;;0.65;100.00;102880.34;6302012;28;20051;-76
2024/01/12 05:31:53;;;;;;;23.25;8.32;;;;;;;0.66;100.00;102874.34;6301981;28;20369;-76
2024/01/12 05:34:54;;;;;;;23.67;7.03;;;;;;;0.63;100.00;102875.13;6301588;28;20096;-77
2024/01/12 05:37:57;;;;;;;22.23;6.88;;;;;;;0.67;100.00;102876.94;6300763;28;20467;-76
2024/01/12 05:40:58;;;;;;;21.42;6.90;;;;;;;0.60;100.00;102867.31;6301744;28;20051;-77
2024/01/12 05:44:00;;;;;;;27.10;7.55;;;;;;;0.51;100.00;102872.28;6301203;28;20434;-77
2024/01/12 05:47:01;;;;;;;23.13;7.20;;;;;;;0.77;100.00;102878.00;6301244;28;20075;-76
2024/01/12 05:50:03;;;;;;;21.13;7.88;;;;;;;0.66;100.00;102876.91;6301342;28;20053;-76
2024/01/12 05:53:06;;;;;;;23.27;8.38;;;;;;;0.62;100.00;102875.97;6300908;28;20048;-77
2024/01/12 05:56:08;;;;;;;28.55;7.28;;;;;;;0.68;100.00;102870.94;6300625;28;20348;-76
2024/01/12 05:59:09;;;;;;;33.25;7.75;;;;;;;0.57;100.00;102867.25;6295985;28;20617;-77
2024/01/12 06:02:14;;;;;;;22.42;7.50;;;;;;;0.50;100.00;102867.97;6293490;28;20066;-77
2024/01/12 06:05:15;;;;;;;28.67;8.93;;;;;;;0.56;100.00;102869.81;6300731;28;20059;-77
2024/01/12 06:08:18;;;;;;;22.15;6.22;;;;;;;0.61;100.00;102878.53;6300839;28;20052;-76
2024/01/12 06:11:19;;;;;;;23.25;8.10;;;;;;;0.66;100.00;102872.63;6301144;28;20075;-76
2024/01/12 06:14:20;;;;;;;29.13;8.50;;;;;;;0.69;100.00;102877.88;6300629;28;20053;-77
2024/01/12 06:17:22;;;;;;;27.55;7.88;;;;;;;0.68;100.00;102880.41;6300281;28;20315;-77
2024/01/12 06:20:23;;;;;;;30.60;9.40;;;;;;;0.60;100.00;102867.31;6300926;28;20056;-77
2024/01/12 06:23:25;;;;;;;23.08;7.80;;;;;;;0.67;100.00;102870.91;6300370;28;20441;-76
2024/01/12 06:26:27;;;;;;;34.47;8.27;;;;;;;0.66;100.00;102862.25;6300250;28;20052;-76
2024/01/12 06:29:28;;;;;;;27.95;8.85;;;;;;;0.74;100.00;102868.47;6288657;28;20445;-77
2024/01/12 06:32:29;;;;;;;40.97;10.45;;;;;;;0.65;100.00;102864.81;6300663;28;20056;-76
2024/01/12 06:35:31;;;;;;;32.28;9.82;;;;;;;0.72;100.00;102862.38;6299835;28;20059;-76
2024/01/12 06:38:34;;;;;;;40.50;11.30;;;;;;;0.67;100.00;102868.31;6290158;28;20052;-76
2024/01/12 06:41:35;;;;;;;39.30;9.80;;;;;;;0.67;100.00;102876.94;6300365;28;20048;-76
2024/01/12 06:44:39;;;;;;;28.33;9.23;;;;;;;0.76;100.00;102879.72;6300106;28;20048;-75
2024/01/12 06:47:40;;;;;;;40.13;10.60;;;;;;;0.84;100.00;102884.22;6295578;28;20049;-76
2024/01/12 06:50:42;;;;;;;38.42;11.07;;;;;;;0.83;100.00;102878.16;6288114;28;20052;-76
2024/01/12 06:53:45;;;;;;;39.92;11.52;;;;;;;0.75;100.00;102888.34;6299844;28;20353;-76
2024/01/12 06:56:46;;;;;;;39.33;10.85;;;;;;;0.62;100.00;102877.69;6299587;28;20055;-76
2024/01/12 06:59:47;;;;;;;35.88;11.30;;;;;;;0.67;100.00;102882.13;6300330;28;20063;-76
2024/01/12 07:02:49;;;;;;;35.65;11.73;;;;;;;0.55;100.00;102876.69;6299857;28;20653;-77
2024/01/12 07:05:50;;;;;;;30.83;11.73;;;;;;;0.55;100.00;102874.09;6299710;28;20044;-78
2024/01/12 07:08:53;;;;;;;32.47;9.93;;;;;;;0.63;100.00;102882.88;6299765;28;20052;-76
2024/01/12 07:11:54;;;;;;;37.17;12.00;;;;;;;0.58;100.00;102889.69;6299892;28;20044;-76
2024/01/12 07:14:55;;;;;;;41.90;11.35;;;;;;;0.68;100.00;102886.47;6299713;28;20551;-77
2024/01/12 07:17:58;;;;;;;31.50;11.02;;;;;;;0.68;100.00;102883.88;6295824;28;20123;-76
2024/01/12 07:21:03;;;;;;;41.17;11.38;;;;;;;0.72;100.00;102888.25;6291615;28;20445;-76
2024/01/12 07:24:06;;;;;;;26.77;10.82;;;;;;;0.82;100.00;102889.38;6299518;28;20135;-77
2024/01/12 07:27:07;;;;;;;28.05;9.45;;;;;;;0.81;100.00;102889.31;6299401;28;20445;-76
2024/01/12 07:30:09;;;;;;;37.75;10.15;;;;;;;0.83;100.00;102885.06;6299754;28;20568;-76
2024/01/12 07:33:10;;;;;;;36.75;9.95;;;;;;;0.82;100.00;102889.38;6299531;28;20059;-77
2024/01/12 07:36:12;;;;;;;31.17;9.95;;;;;;;0.82;100.00;102891.03;6298882;28;20056;-77
2024/01/12 07:39:14;;;;;;;27.23;10.38;;;;;;;0.92;100.00;102891.28;6293359;28;20056;-75
2024/01/12 07:42:15;;;;;;;28.88;10.55;;;;;;;0.87;100.00;102903.28;6293918;28;20433;-76
2024/01/12 07:45:17;;;;;;;35.90;10.10;;;;;;;0.85;100.00;102894.59;6304035;28;20055;-76
2024/01/12 07:48:18;;;;;;;25.42;10.55;;;;;;;0.92;100.00;102898.19;6280529;28;20426;-76
2024/01/12 07:51:20;;;;;;;23.10;9.60;;;;;;;0.94;100.00;102897.38;6276158;28;20053;-76
2024/01/12 07:54:22;;;;;;;25.88;9.57;;;;;;;1.01;100.00;102890.63;6276432;28;20103;-76
2024/01/12 07:57:24;;;;;;;25.15;10.88;;;;;;;1.02;100.00;102898.41;6290742;28;20057;-75
2024/01/12 08:00:25;;;;;;;21.13;8.50;;;;;;;0.98;100.00;102903.50;6294010;28;20049;-76
2024/01/12 08:03:27;;;;;;;28.25;10.75;;;;;;;1.02;100.00;102892.34;6301447;28;20083;-76
2024/01/12 08:06:28;;;;;;;23.25;10.00;;;;;;;1.05;100.00;102896.75;6287970;28;20349;-76
2024/01/12 08:09:31;;;;;;;29.63;9.52;;;;;;;1.04;100.00;102882.88;6281673;28;20059;-76
2024/01/12 08:12:32;;;;;;;28.40;10.00;;;;;;;1.10;100.00;102893.41;6295255;28;20048;-76
2024/01/12 08:15:33;;;;;;;26.60;9.63;;;;;;;1.04;100.00;102893.25;6303109;28;20045;-76
2024/01/12 08:18:35;;;;;;;23.65;10.10;;;;;;;0.99;100.00;102885.38;6291525;28;20057;-77
2024/01/12 08:21:36;;;;;;;25.58;9.50;;;;;;;1.08;100.00;102879.53;6289250;28;20124;-77
2024/01/12 08:24:39;;;;;;;30.27;10.85;;;;;;;1.09;100.00;102877.81;6287584;28;20044;-74
2024/01/12 08:27:41;;;;;;;32.47;11.50;;;;;;;1.06;100.00;102877.75;6280866;28;20057;-76
2024/01/12 08:30:42;;;;;;;31.63;10.13;;;;;;;1.07;100.00;102876.91;6288732;28;20052;-76
2024/01/12 08:33:44;;;;;;;40.47;11.73;;;;;;;1.08;100.00;102882.13;6299543;28;20440;-76
2024/01/12 08:36:46;;;;;;;32.97;11.27;;;;;;;1.13;100.00;102872.72;6293077;28;20048;-73
2024/01/12 08:39:48;;;;;;;30.35;11.68;;;;;;;1.27;100.00;102881.66;6300101;28;20190;-75
2024/01/12 08:42:51;;;;;;;25.17;9.48;;;;;;;1.20;100.00;102881.50;6302640;28;20056;-76
2024/01/12 08:45:52;;;;;;;20.75;9.73;;;;;;;1.27;100.00;102875.56;6302613;28;20137;-75
2024/01/12 08:48:54;;;;;;;28.90;10.73;;;;;;;1.37;100.00;102869.75;6302730;28;20071;-74
2024/01/12 08:51:56;;;;;;;25.45;9.32;;;;;;;1.32;100.00;102870.47;6284671;28;20045;-76
2024/01/12 08:54:59;;;;;;;32.58;9.20;;;;;;;1.36;100.00;102860.22;6285342;28;20045;-75
2024/01/12 08:58:01;;;;;;;28.08;9.07;;;;;;;1.35;100.00;102849.84;6296849;28;20040;-77
2024/01/12 09:01:02;;;;;;;18.35;8.27;;;;;;;1.46;100.00;102844.03;6294258;28;20353;-76
2024/01/12 09:04:03;;;;;;;20.45;8.45;;;;;;;1.50;100.00;102838.03;6302131;28;20090;-76
2024/01/12 09:07:05;;;;;;;20.27;8.98;;;;;;;1.50;100.00;102839.78;6286548;28;20434;-76
2024/01/12 09:10:08;;;;;;;16.40;7.85;;;;;;;1.52;100.00;102836.34;6299563;28;20357;-76
2024/01/12 09:13:10;;;;;;;32.60;8.73;;;;;;;1.52;100.00;102838.06;6270976;28;20049;-77
2024/01/12 09:16:11;;;;;;;17.77;8.05;;;;;;;1.56;100.00;102828.63;6266729;28;20042;-76
2024/01/12 09:19:13;;;;;;;25.13;7.75;;;;;;;1.55;100.00;102830.34;6284639;28;20067;-75
2024/01/12 09:22:14;;;;;;;31.20;9.07;;;;;;;1.55;100.00;102820.00;6278497;28;20082;-75
2024/01/12 09:25:17;;;;;;;23.55;9.38;;;;;;;1.65;100.00;102813.25;6279597;28;20040;-75
2024/01/12 09:28:18;;;;;;;25.63;10.55;;;;;;;1.70;100.00;102814.19;6281345;28;20052;-76
2024/01/12 09:31:20;;;;;;;29.05;10.85;;;;;;;1.66;100.00;102817.56;6279391;28;20453;-76
2024/01/12 09:34:21;;;;;;;23.35;10.30;;;;;;;1.75;100.00;102821.19;6278128;28;20442;-76
2024/01/12 09:37:22;;;;;;;27.63;9.70;;;;;;;1.76;100.00;102809.09;6277279;28;20049;-76
2024/01/12 09:40:25;;;;;;;22.88;9.68;;;;;;;1.81;100.00;102807.44;6282510;28;20060;-75
2024/01/12 09:43:29;;;;;;;23.88;9.25;;;;;;;1.81;100.00;102806.56;6288730;28;20053;-75
2024/01/12 09:46:37;;;;;;;23.58;7.97;;;;;;;1.71;100.00;102790.00;6282385;28;20102;-75
2024/01/12 09:49:42;;;;;;;31.45;8.70;;;;;;;1.72;100.00;102782.25;6284058;28;20049;-76
2024/01/12 09:52:43;;;;;;;20.23;8.82;;;;;;;1.64;100.00;102772.63;6292920;28;20052;-77
2024/01/12 09:55:46;;;;;;;26.52;10.50;;;;;;;1.80;100.00;102760.78;6278143;28;20554;-77
2024/01/12 09:58:48;;;;;;;17.88;8.20;;;;;;;1.66;100.00;102769.19;6277551;28;20075;-77
2024/01/12 10:01:50;;;;;;;19.60;8.50;;;;;;;1.70;100.00;102780.50;6275670;28;20041;-76
2024/01/12 10:04:53;;;;;;;20.67;9.15;;;;;;;1.67;100.00;102781.31;6274397;28;20037;-76
2024/01/12 10:07:54;;;;;;;18.40;8.50;;;;;;;1.75;100.00;102781.44;6272871;28;20041;-76
2024/01/12 10:10:57;;;;;;;15.18;7.70;;;;;;;1.72;100.00;102778.78;6275596;28;20068;-77
2024/01/12 10:13:58;;;;;;;16.55;7.80;;;;;;;1.84;100.00;102778.13;6275439;28;20041;-77
2024/01/12 10:17:00;;;;;;;15.85;7.00;;;;;;;1.81;100.00;102789.31;6274307;28;20041;-76
2024/01/12 10:20:01;;;;;;;16.10;7.93;;;;;;;1.87;100.00;102781.63;6279146;28;20126;-77
2024/01/12 10:23:03;;;;;;;20.33;7.45;;;;;;;1.86;100.00;102772.09;6276585;28;20334;-77
2024/01/12 10:26:08;;;;;;;23.63;9.30;;;;;;;1.85;100.00;102769.50;6275039;28;20041;-77
2024/01/12 10:29:09;;;;;;;17.63;7.00;;;;;;;1.84;100.00;102766.03;6275172;28;20136;-76
2024/01/12 10:32:11;;;;;;;28.10;7.90;;;;;;;1.94;100.00;102765.31;6275085;28;20040;-76
2024/01/12 10:35:13;;;;;;;17.10;8.10;;;;;;;2.02;100.00;102762.84;6274579;28;20184;-76
2024/01/12 10:38:15;;;;;;;23.85;8.73;;;;;;;1.93;100.00;102765.31;6274873;28;20055;-77
2024/01/12 10:41:22;;;;;;;22.88;8.10;;;;;;;1.95;100.00;102759.31;6272098;28;20342;-76
2024/01/12 10:44:28;;;;;;;20.58;8.70;;;;;;;1.96;100.00;102770.53;6274997;28;20045;-76
2024/01/12 10:47:33;;;;;;;17.63;8.82;;;;;;;1.90;100.00;102776.47;6274524;28;20049;-77
2024/01/12 10:50:41;;;;;;;22.70;9.32;;;;;;;1.87;100.00;102779.03;6274800;28;20052;-77
2024/01/12 10:53:51;;;;;;;24.60;9.93;;;;;;;1.87;100.00;102781.63;6272755;28;20037;-77
2024/01/12 10:56:55;;;;;;;27.35;8.98;;;;;;;1.85;100.00;102772.09;6275262;28;20044;-78
2024/01/12 10:59:57;;;;;;;25.58;10.25;;;;;;;1.83;100.00;102763.44;6275613;28;20049;-77
2024/01/12 11:03:01;;;;;;;22.30;8.93;;;;;;;1.90;100.00;102765.25;6273222;28;20049;-77
2024/01/12 11:06:02;;;;;;;21.52;9.05;;;;;;;1.82;100.00;102765.16;6273715;28;20044;-77
2024/01/12 11:09:05;;;;;;;26.13;9.77;;;;;;;1.77;100.00;102771.94;6284837;28;20051;-79
2024/01/12 11:12:12;;;;;;;24.67;9.75;;;;;;;1.68;100.00;102767.53;6285808;28;20044;-78
2024/01/12 11:15:13;;;;;;;37.13;10.43;;;;;;;1.72;100.00;102766.69;6289122;28;20044;-79
2024/01/12 11:18:14;;;;;;;27.45;9.75;;;;;;;1.80;100.00;102763.38;6279662;28;20048;-78
2024/01/12 11:21:23;;;;;;;23.95;9.43;;;;;;;1.75;100.00;102763.28;6281243;28;20052;-77
2024/01/12 11:24:25;;;;;;;30.95;11.18;;;;;;;1.64;100.00;102762.28;6277042;28;20052;-77
2024/01/12 11:27:33;;;;;;;31.55;10.43;;;;;;;1.64;100.00;102739.81;6281415;28;20048;-77
2024/01/12 11:30:40;;;;;;;24.60;10.10;;;;;;;1.71;100.00;102739.03;6280822;28;20068;-77
2024/01/12 11:33:42;;;;;;;28.42;10.07;;;;;;;1.68;100.00;102740.72;6278759;28;20345;-78
2024/01/12 11:36:43;;;;;;;29.17;9.07;;;;;;;1.67;100.00;102733.78;6275781;28;20056;-78
2024/01/12 11:39:55;;;;;;;24.00;9.32;;;;;;;1.71;100.00;102725.22;6279078;28;20044;-78
2024/01/12 11:42:59;;;;;;;26.70;9.63;;;;;;;1.86;100.00;102725.44;6279188;28;20601;-78
2024/01/12 11:46:01;;;;;;;30.65;11.07;;;;;;;1.90;100.00;102715.97;6292069;28;20036;-78
2024/01/12 11:49:04;;;;;;;30.55;10.00;;;;;;;1.80;100.00;102704.63;6285825;28;20052;-77
2024/01/12 11:52:07;;;;;;;28.90;11.02;;;;;;;1.77;100.00;102702.88;6287755;28;20159;-77
2024/01/12 11:55:10;;;;;;;34.45;10.13;;;;;;;1.68;100.00;102702.72;6282079;28;20057;-78
2024/01/12 11:58:13;;;;;;;22.38;9.40;;;;;;;1.70;100.00;102702.75;6284776;28;20052;-78
2024/01/12 12:01:14;;;;;;;28.05;9.63;;;;;;;1.65;100.00;102692.31;6278684;28;20056;-79
2024/01/12 12:04:16;;;;;;;25.88;9.68;;;;;;;1.71;100.00;102688.94;6278684;28;20045;-78
2024/01/12 12:07:18;;;;;;;26.45;9.00;;;;;;;1.66;100.00;102682.81;6277761;28;20357;-78
2024/01/12 12:10:20;;;;;;;24.40;9.40;;;;;;;1.66;100.00;102680.22;6278489;28;20053;-79
2024/01/12 12:13:23;;;;;;;28.27;8.77;;;;;;;1.71;100.00;102678.56;6283893;28;20049;-79
2024/01/12 12:16:24;;;;;;;20.40;8.48;;;;;;;1.76;100.00;102676.91;6281337;28;20056;-78
2024/01/12 12:19:25;;;;;;;17.70;7.07;;;;;;;1.88;100.00;102669.31;6277679;28;20561;-80
2024/01/12 12:22:27;;;;;;;22.83;7.75;;;;;;;1.77;100.00;102658.81;6281113;28;20334;-79
2024/01/12 12:25:28;;;;;;;22.00;8.40;;;;;;;1.88;100.00;102653.75;6293611;28;20052;-79
2024/01/12 12:28:32;;;;;;;20.83;7.25;;;;;;;1.87;100.00;102646.84;6297141;28;20055;-78
2024/01/12 12:31:39;;;;;;;16.80;7.63;;;;;;;1.85;100.00;102653.72;6283806;28;20072;-79
2024/01/12 12:34:43;;;;;;;20.95;7.53;;;;;;;1.88;100.00;102658.06;6303180;28;20057;-79
2024/01/12 12:37:46;;;;;;;19.35;7.50;;;;;;;1.84;100.00;102653.69;6302561;28;20052;-79
2024/01/12 12:40:48;;;;;;;20.52;8.70;;;;;;;1.88;100.00;102647.72;6303035;28;20048;-79
2024/01/12 12:43:51;;;;;;;14.70;7.53;;;;;;;1.84;100.00;102651.09;6302992;28;20486;-79
2024/01/12 12:46:53;;;;;;;17.95;7.78;;;;;;;1.78;100.00;102644.13;6300583;28;20059;-80
2024/01/12 12:49:54;;;;;;;17.75;7.55;;;;;;;1.81;100.00;102641.56;6291754;28;20037;-79
2024/01/12 12:52:55;;;;;;;21.75;7.90;;;;;;;1.77;100.00;102638.06;6299896;28;20059;-78
2024/01/12 12:55:57;;;;;;;23.15;8.70;;;;;;;1.75;100.00;102639.75;6286320;28;20393;-79
2024/01/12 12:58:59;;;;;;;22.33;7.90;;;;;;;1.86;100.00;102632.09;6290663;28;20052;-77
2024/01/12 13:02:01;;;;;;;26.77;10.55;;;;;;;1.81;100.00;102636.38;6278044;28;20053;-79
2024/01/12 13:05:03;;;;;;;25.20;9.27;;;;;;;1.76;100.00;102635.44;6277368;28;20045;-79
2024/01/12 13:08:07;;;;;;;22.98;9.10;;;;;;;1.91;100.00;102640.84;6277709;28;20124;-79
2024/01/12 13:11:09;;;;;;;31.90;10.27;;;;;;;1.86;100.00;102641.59;6285854;28;20437;-78
2024/01/12 13:14:11;;;;;;;24.02;9.00;;;;;;;1.94;100.00;102637.41;6277152;28;20182;-79
2024/01/12 13:17:13;;;;;;;22.08;9.15;;;;;;;1.84;100.00;102639.00;6293005;28;20349;-80
2024/01/12 13:20:16;;;;;;;20.92;9.00;;;;;;;1.84;100.00;102632.97;6293857;28;20599;-80
2024/01/12 13:23:17;;;;;;;19.33;7.82;;;;;;;1.89;100.00;102629.56;6291396;28;20127;-80
2024/01/12 13:26:19;;;;;;;24.95;10.15;;;;;;;1.89;100.00;102626.97;6301553;28;20465;-80
2024/01/12 13:29:21;;;;;;;26.25;9.25;;;;;;;1.91;100.00;102616.66;6302176;28;20044;-79
2024/01/12 13:32:23;;;;;;;23.95;8.63;;;;;;;1.99;100.00;102623.63;6301718;28;20045;-80
2024/01/12 13:35:24;;;;;;;20.08;8.30;;;;;;;2.01;100.00;102615.91;6301489;28;20048;-79
2024/01/12 13:38:25;;;;;;;33.45;8.48;;;;;;;1.98;100.00;102611.53;6291941;28;20044;-79
2024/01/12 13:41:27;;;;;;;29.15;8.32;;;;;;;2.00;100.00;102608.97;6294476;28;20052;-80
2024/01/12 13:44:29;;;;;;;25.80;8.63;;;;;;;2.03;100.00;102607.28;6301314;28;20070;-78
2024/01/12 13:47:31;;;;;;;23.52;9.25;;;;;;;1.98;100.00;102608.94;6287672;28;20485;-79
2024/01/12 13:50:32;;;;;;;27.88;8.82;;;;;;;2.02;100.00;102599.47;6276604;28;20365;-77
2024/01/12 13:53:33;;;;;;;25.83;7.72;;;;;;;2.00;100.00;102602.06;6275862;28;20353;-78